SBOSBO LIS / LPPT
Speedbird OnlineSpeedbird Online LIS / LPPT

Humberto Delgado Airport (Lisbon Portela Airport)
18:03 25.9°C

Location Lisbon, Portugal
Latitude: 38.7813
Longitude: -9.13592
Local Time 18:03 on 30 May 2024
UTC +1 hours (Europe/Lisbon)
Currency £1 equals EUR 1.18
METAR LPPT 301630Z 33015KT CAVOK 27/16 Q1010
TAF TAF LPPT 301100Z 3012/3118 32010KT CAVOK BECMG 3014/3016 32015KT BECMG 3020/3022 34010KT 9999 FEW012 BECMG 3106/3108 03007KT CAVOK BECMG 3116/3118 33012KT
Weather As Of 30 May 2024 18:00
Description Clear sky
Wind 28 km/h from North-West (330°)
Cloud Cover 0%
Precipitation Rain: none, Snow: none
Sunrise 06:14
Sunset 20:54
NOTAM 52 active NOTAM
Rotations During the last 90 days there were
367 flights from LHR
4 flights from LIS
355 flights to LHR
4 flights to LIS
Lounges Blue Lounge (Temporariy closed), Terminal 1
ANA Lounge , Terminal 1
Web Airport Website | Wikipedia
Codes IATA: LIS
ICAO: LPPT
Altitude 114 Meter / 374 Feet
Distance 1,588 KM / 987 Miles
from London.
Runways
RunwayLength (m)Surface
023805Asphalt
172400Asphalt
203805Asphalt
352400Asphalt
Radio
TypeDescriptionFrequency
APPAPP119.1
ATISATIS124.15
CLDCLD118.95
GNDGND121.75
INFOINFO123.75
RDORDO127.9
TWRTWR118.1
Live ATC



Support Speedbird Online

© 2017-2024 Speedbird Online